Weather at Aktion National Airport

Public forecast

Using degrees Celsius for public forecast. Weather courtesy of forecast.io.

Current aviation weather report (METAR) for Aktion National Airport

2024/02/25 05:20 (retrieved 12 minutes ago)

LGPZ 250520Z 13004KT 9999 FEW015 SCT035 16/10 Q1015

Closest aviation forecast (TAF) to Aktion National Airport

Forecast is more than 6 hours old.

Closest forecast is Crotone Airport, 172.1 nm (318.7 km) W.

2024/02/24 18:20 (retrieved 11 hours ago)

TAF LIBC 241909Z 2418/2518 CNL